createdAt,value
2022-08-05T00:00:50.187Z,65.03
2022-08-05T00:02:50.816Z,64.80
2022-08-05T00:04:55.572Z,64.68
2022-08-05T00:06:55.627Z,64.89
2022-08-05T00:08:54.017Z,65.21
2022-08-05T00:10:52.215Z,64.67
2022-08-05T00:12:56.791Z,64.67
2022-08-05T00:14:56.113Z,63.88
2022-08-05T00:16:54.438Z,63.94
2022-08-05T00:18:52.639Z,63.77
2022-08-05T00:20:51.918Z,64.11
2022-08-05T00:22:57.434Z,63.91
2022-08-05T00:25:00.514Z,64.17
2022-08-05T00:26:59.842Z,64.49
2022-08-05T00:28:58.841Z,64.59
2022-08-05T00:30:57.135Z,64.46
2022-08-05T00:33:02.700Z,64.47
2022-08-05T00:35:06.932Z,64.44
2022-08-05T00:37:12.461Z,64.36
2022-08-05T00:39:14.308Z,64.49
2022-08-05T00:41:12.823Z,64.74
2022-08-05T00:43:15.386Z,65.21
2022-08-05T00:45:13.719Z,65.14
2022-08-05T00:47:12.001Z,65.34
2022-08-05T00:49:10.494Z,65.63
2022-08-05T00:51:50.443Z,65.87
2022-08-05T00:54:00.032Z,65.91
2022-08-05T00:55:52.889Z,65.40
2022-08-05T00:57:58.549Z,65.10
2022-08-05T00:59:57.495Z,65.24
2022-08-05T01:01:55.788Z,66.09
2022-08-05T01:03:54.306Z,66.49
2022-08-05T01:05:54.482Z,66.61
2022-08-05T01:08:31.590Z,66.65
2022-08-05T01:10:14.983Z,66.30
2022-08-05T01:12:19.173Z,66.21
2022-08-05T01:14:27.781Z,67.24
2022-08-05T01:16:31.908Z,67.36
2022-08-05T01:18:35.416Z,66.80
2022-08-05T01:20:42.559Z,66.86
2022-08-05T01:22:57.512Z,66.75
2022-08-05T01:25:40.152Z,67.01
2022-08-05T01:28:12.163Z,67.48
2022-08-05T01:30:17.724Z,67.71
2022-08-05T01:32:21.983Z,68.18
2022-08-05T01:34:26.784Z,68.61
2022-08-05T01:36:30.790Z,68.54
2022-08-05T01:38:30.758Z,68.95
2022-08-05T01:40:32.163Z,68.93
2022-08-05T01:42:32.958Z,68.66
2022-08-05T01:44:35.264Z,68.74
2022-08-05T01:46:42.511Z,69.27
2022-08-05T01:48:49.722Z,68.59
2022-08-05T01:50:51.101Z,67.16
2022-08-05T01:52:51.611Z,67.21
2022-08-05T01:54:53.851Z,66.99
2022-08-05T01:58:12.357Z,67.08
2022-08-05T01:59:17.806Z,66.83
2022-08-05T02:01:25.333Z,67.12
2022-08-05T02:03:31.991Z,67.23
2022-08-05T02:05:34.382Z,67.66
2022-08-05T02:07:36.346Z,67.79
2022-08-05T02:09:34.776Z,68.01
2022-08-05T02:11:54.112Z,68.70
2022-08-05T02:14:01.676Z,69.20
2022-08-05T02:16:06.201Z,69.23
2022-08-05T02:18:27.979Z,69.31
2022-08-05T02:20:31.832Z,69.66
2022-08-05T02:22:43.239Z,70.34
2022-08-05T02:24:48.146Z,70.38
2022-08-05T02:26:54.717Z,70.04
2022-08-05T02:28:56.211Z,69.63
2022-08-05T02:31:01.685Z,69.39
2022-08-05T02:33:01.474Z,68.88
2022-08-05T02:35:13.674Z,69.23
2022-08-05T02:37:14.261Z,69.37
2022-08-05T02:39:18.447Z,69.66
2022-08-05T02:41:22.999Z,70.04
2022-08-05T02:43:23.093Z,70.47
2022-08-05T02:45:23.852Z,71.04
2022-08-05T02:47:23.995Z,70.87
2022-08-05T02:49:23.275Z,71.28
2022-08-05T02:51:28.244Z,71.15
2022-08-05T02:53:43.557Z,71.66
2022-08-05T02:55:54.065Z,71.74
2022-08-05T02:58:19.637Z,71.20
2022-08-05T03:00:13.895Z,71.06
2022-08-05T03:02:13.724Z,71.24
2022-08-05T03:04:15.728Z,71.47
2022-08-05T03:06:54.726Z,71.85
2022-08-05T03:08:35.911Z,71.15
2022-08-05T03:10:34.140Z,70.85
2022-08-05T03:12:33.178Z,70.83
2022-08-05T03:14:31.558Z,70.73
2022-08-05T03:16:29.825Z,70.95
2022-08-05T03:18:30.749Z,71.09
2022-08-05T03:20:29.078Z,71.68
2022-08-05T03:22:32.122Z,71.28
2022-08-05T03:24:32.488Z,71.36
2022-08-05T03:26:32.776Z,71.26
2022-08-05T03:28:31.535Z,70.96
2022-08-05T03:30:34.197Z,70.14
2022-08-05T03:32:33.028Z,70.10
2022-08-05T03:34:31.963Z,70.04
2022-08-05T03:36:30.814Z,70.53
2022-08-05T03:38:33.334Z,71.00
2022-08-05T03:40:41.398Z,71.82
2022-08-05T03:42:52.482Z,72.43
2022-08-05T03:44:51.108Z,72.43
2022-08-05T03:46:50.142Z,72.67
2022-08-05T03:48:48.420Z,72.18
2022-08-05T03:50:52.204Z,71.80
2022-08-05T03:55:53.358Z,70.33
2022-08-05T03:56:04.607Z,67.61
2022-08-05T03:57:46.556Z,64.71
2022-08-05T03:59:54.791Z,63.14
2022-08-05T04:01:58.625Z,61.14
2022-08-05T04:04:09.835Z,60.50
2022-08-05T04:06:09.721Z,59.10
2022-08-05T04:08:14.346Z,58.29
2022-08-05T04:10:33.292Z,58.49
2022-08-05T04:14:35.813Z,56.30
2022-08-05T04:16:35.718Z,56.39
2022-08-05T04:18:34.665Z,55.82
2022-08-05T04:20:32.973Z,54.45
2022-08-05T04:22:31.919Z,52.38
2022-08-05T04:24:30.178Z,53.51
2022-08-05T04:26:32.455Z,53.23
2022-08-05T04:28:31.830Z,52.72
2022-08-05T04:30:31.594Z,52.66
2022-08-05T04:32:31.179Z,53.30
2022-08-05T04:34:35.139Z,52.53
2022-08-05T04:36:46.006Z,52.25
2022-08-05T04:38:51.026Z,53.07
2022-08-05T04:40:50.625Z,53.16
2022-08-05T04:42:49.389Z,52.32
2022-08-05T04:44:47.665Z,53.44
2022-08-05T04:46:47.436Z,53.27
2022-08-05T04:48:47.027Z,53.04
2022-08-05T04:51:01.615Z,52.24
2022-08-05T04:53:01.441Z,52.29
2022-08-05T04:54:59.664Z,52.10
2022-08-05T04:57:12.413Z,51.63
2022-08-05T04:59:21.466Z,51.82
2022-08-05T05:02:06.263Z,51.02
2022-08-05T05:03:48.556Z,50.72
2022-08-05T05:06:39.617Z,50.08
2022-08-05T05:08:14.415Z,51.71
2022-08-05T05:10:25.939Z,52.18
2022-08-05T05:12:27.921Z,50.08
2022-08-05T05:14:28.204Z,51.32
2022-08-05T05:16:30.570Z,52.85
2022-08-05T05:18:33.341Z,51.87
2022-08-05T05:20:37.171Z,52.46
2022-08-05T05:22:40.805Z,52.13
2022-08-05T05:24:58.564Z,52.17
2022-08-05T05:26:57.972Z,52.34
2022-08-05T05:28:57.664Z,52.01
2022-08-05T05:30:55.938Z,51.34
2022-08-05T05:32:55.104Z,51.47
2022-08-05T05:34:53.424Z,51.47
2022-08-05T05:36:53.513Z,52.12
2022-08-05T05:38:51.900Z,52.45
2022-08-05T05:40:51.561Z,51.78
2022-08-05T05:42:50.974Z,51.45
2022-08-05T05:44:50.071Z,51.94
2022-08-05T05:46:48.313Z,51.52
2022-08-05T05:48:49.347Z,52.32
2022-08-05T05:50:47.749Z,51.29
2022-08-05T05:52:48.623Z,50.12
2022-08-05T05:54:50.162Z,50.86
2022-08-05T05:56:49.473Z,49.87
2022-08-05T05:58:48.994Z,48.96
2022-08-05T06:00:48.730Z,48.46
2022-08-05T06:02:48.698Z,47.52
2022-08-05T06:04:49.323Z,47.26
2022-08-05T06:06:49.146Z,46.09
2022-08-05T06:08:49.352Z,47.47
2022-08-05T06:10:49.239Z,48.27
2022-08-05T06:13:15.850Z,47.03
2022-08-05T06:15:24.036Z,47.66
2022-08-05T06:17:24.613Z,48.04
2022-08-05T06:19:34.215Z,46.78
2022-08-05T06:21:36.602Z,47.34
2022-08-05T06:23:44.120Z,47.95
2022-08-05T06:26:12.621Z,47.85
2022-08-05T06:28:10.500Z,47.25
2022-08-05T06:30:19.910Z,47.42
2022-08-05T06:32:25.674Z,48.07
2022-08-05T06:34:27.743Z,47.58
2022-08-05T06:36:26.183Z,46.40
2022-08-05T06:38:36.603Z,47.37
2022-08-05T06:40:35.327Z,46.75
2022-08-05T06:42:42.187Z,46.44
2022-08-05T06:44:40.607Z,46.51
2022-08-05T06:46:40.508Z,45.95
2022-08-05T06:48:55.998Z,46.02
2022-08-05T06:50:54.979Z,45.75
2022-08-05T06:53:03.536Z,45.17
2022-08-05T06:55:10.415Z,44.81
2022-08-05T06:57:56.856Z,44.50
2022-08-05T06:59:28.810Z,46.18
2022-08-05T07:01:40.466Z,46.96
2022-08-05T07:03:39.090Z,47.47
2022-08-05T07:05:41.119Z,46.32
2022-08-05T07:07:43.280Z,44.95
2022-08-05T07:09:43.265Z,43.79
2022-08-05T07:11:41.785Z,44.31
2022-08-05T07:13:59.992Z,43.54
2022-08-05T07:18:00.539Z,43.78
2022-08-05T07:18:32.263Z,42.63
2022-08-05T07:20:33.393Z,43.51
2022-08-05T07:22:32.460Z,43.94
2022-08-05T07:24:30.627Z,43.07
2022-08-05T07:26:29.958Z,42.16
2022-08-05T07:28:29.441Z,41.53
2022-08-05T07:30:32.281Z,42.13
2022-08-05T07:32:36.531Z,42.02
2022-08-05T07:34:37.213Z,41.26
2022-08-05T07:36:40.707Z,40.41
2022-08-05T07:38:42.626Z,39.18
2022-08-05T07:40:44.500Z,39.78
2022-08-05T07:42:44.062Z,41.05
2022-08-05T07:44:42.844Z,38.62
2022-08-05T07:46:48.246Z,37.60
2022-08-05T07:49:02.628Z,37.63
2022-08-05T07:51:03.003Z,35.65
2022-08-05T07:53:07.094Z,34.54
2022-08-05T07:55:43.866Z,35.58
2022-08-05T07:57:58.924Z,35.55
2022-08-05T07:59:43.233Z,35.14
2022-08-05T08:01:52.112Z,35.54
2022-08-05T08:03:57.229Z,36.46
2022-08-05T08:05:55.918Z,36.12
2022-08-05T08:08:00.295Z,36.28
2022-08-05T08:09:58.883Z,36.13
2022-08-05T08:12:00.095Z,34.40
2022-08-05T08:14:05.133Z,34.48
2022-08-05T08:16:34.834Z,34.30
2022-08-05T08:18:23.124Z,34.21
2022-08-05T08:21:00.186Z,33.29
2022-08-05T08:22:41.960Z,32.95
2022-08-05T08:24:51.471Z,32.14
2022-08-05T08:26:50.979Z,31.48
2022-08-05T08:28:59.563Z,31.57
2022-08-05T08:31:04.406Z,31.03
2022-08-05T08:33:08.490Z,29.59
2022-08-05T08:35:13.615Z,28.57
2022-08-05T08:37:13.345Z,27.73
2022-08-05T08:39:18.321Z,27.51
2022-08-05T08:41:18.453Z,27.42
2022-08-05T08:44:56.503Z,27.82
2022-08-05T08:45:39.264Z,26.88
2022-08-05T08:48:05.811Z,26.73
2022-08-05T08:50:22.566Z,26.60
2022-08-05T08:52:25.587Z,27.45
2022-08-05T08:54:27.193Z,26.69
2022-08-05T08:56:27.205Z,27.07
2022-08-05T08:58:37.204Z,27.21
2022-08-05T09:00:44.394Z,26.70
2022-08-05T09:02:43.501Z,24.94
2022-08-05T09:04:58.312Z,25.36
2022-08-05T09:07:19.360Z,24.00
2022-08-05T09:09:34.855Z,23.20
2022-08-05T09:11:50.872Z,23.41
2022-08-05T09:14:09.214Z,21.46
2022-08-05T09:16:16.756Z,20.04
2022-08-05T09:18:15.745Z,20.66
2022-08-05T09:20:36.644Z,22.60
2022-08-05T09:23:09.372Z,21.15
2022-08-05T09:25:13.876Z,21.26
2022-08-05T09:28:05.788Z,20.38
2022-08-05T09:29:52.504Z,19.11
2022-08-05T09:32:42.125Z,19.95
2022-08-05T09:34:21.631Z,20.60
2022-08-05T09:36:27.810Z,19.46
2022-08-05T09:38:32.081Z,20.30
2022-08-05T09:40:33.216Z,20.29
2022-08-05T09:42:41.438Z,19.74
2022-08-05T09:44:42.052Z,19.30
2022-08-05T09:46:50.117Z,19.03
2022-08-05T09:48:55.467Z,18.78
2022-08-05T09:51:15.219Z,18.52
2022-08-05T09:53:22.959Z,19.08
2022-08-05T09:55:56.774Z,17.75
2022-08-05T09:57:47.691Z,18.76
2022-08-05T09:59:49.240Z,19.32
2022-08-05T10:01:48.151Z,21.05
2022-08-05T10:04:00.212Z,19.34
2022-08-05T10:06:07.625Z,18.28
2022-08-05T10:08:35.741Z,19.00
2022-08-05T10:10:37.571Z,19.78
2022-08-05T10:12:49.872Z,20.21
2022-08-05T10:14:54.364Z,20.95
2022-08-05T10:16:56.311Z,20.81
2022-08-05T10:18:55.642Z,21.05
2022-08-05T10:20:57.862Z,19.81
2022-08-05T10:23:00.480Z,19.13
2022-08-05T10:24:59.126Z,20.38
2022-08-05T10:27:01.225Z,21.07
2022-08-05T10:28:59.722Z,20.87
2022-08-05T10:32:50.604Z,20.38
2022-08-05T10:33:19.548Z,20.64
2022-08-05T10:35:18.756Z,20.94
2022-08-05T10:37:17.779Z,20.06
2022-08-05T10:39:24.948Z,21.25
2022-08-05T10:41:44.824Z,21.36
2022-08-05T10:43:52.132Z,20.55
2022-08-05T10:46:06.792Z,20.88
2022-08-05T10:48:39.521Z,20.55
2022-08-05T10:51:00.569Z,20.04
2022-08-05T10:52:59.938Z,21.52
2022-08-05T10:55:05.754Z,20.93
2022-08-05T10:57:04.298Z,21.64
2022-08-05T10:59:12.085Z,22.16
2022-08-05T11:01:55.644Z,22.49
2022-08-05T11:04:08.882Z,24.90
2022-08-05T11:06:15.108Z,25.00
2022-08-05T11:08:36.874Z,25.33
2022-08-05T11:10:34.986Z,25.97
2022-08-05T11:12:50.365Z,26.59
2022-08-05T11:15:19.489Z,26.77
2022-08-05T11:17:58.675Z,26.61
2022-08-05T11:20:17.659Z,26.93
2022-08-05T11:22:42.993Z,27.32
2022-08-05T11:24:50.564Z,26.88
2022-08-05T11:27:51.421Z,26.78
2022-08-05T11:30:01.205Z,26.67
2022-08-05T11:32:26.503Z,27.14
2022-08-05T11:34:38.352Z,27.25
2022-08-05T11:36:53.758Z,27.95
2022-08-05T11:38:54.676Z,27.86
2022-08-05T11:41:13.865Z,27.71
2022-08-05T11:44:06.534Z,26.63
2022-08-05T11:46:15.212Z,27.94
2022-08-05T11:48:11.613Z,28.16
2022-08-05T11:50:10.467Z,28.47
2022-08-05T11:52:14.743Z,28.73
2022-08-05T11:54:15.787Z,29.16
2022-08-05T11:56:14.844Z,29.25
2022-08-05T11:58:13.464Z,28.77
2022-08-05T12:00:28.921Z,29.27
2022-08-05T12:02:32.937Z,29.12
2022-08-05T12:04:40.409Z,28.96
2022-08-05T12:06:48.774Z,28.38
2022-08-05T12:08:51.742Z,28.31
2022-08-05T12:10:52.586Z,27.60
2022-08-05T12:12:58.334Z,27.25
2022-08-05T12:14:58.462Z,26.98
2022-08-05T12:16:57.384Z,26.80
2022-08-05T12:18:57.456Z,26.43
2022-08-05T12:20:56.236Z,26.14
2022-08-05T12:23:10.053Z,26.58
2022-08-05T12:25:14.320Z,26.13
2022-08-05T12:27:32.468Z,26.35
2022-08-05T12:29:38.871Z,26.80
2022-08-05T12:31:45.970Z,26.73
2022-08-05T12:33:49.152Z,28.04
2022-08-05T12:35:48.498Z,27.93
2022-08-05T12:37:48.471Z,28.01
2022-08-05T12:39:53.797Z,28.69
2022-08-05T12:41:59.862Z,28.88
2022-08-05T12:44:02.126Z,29.60
2022-08-05T12:46:01.222Z,29.45
2022-08-05T12:48:17.223Z,29.23
2022-08-05T12:50:19.775Z,29.58
2022-08-05T12:52:23.950Z,29.78
2022-08-05T12:54:28.190Z,29.80
2022-08-05T12:56:35.189Z,29.81
2022-08-05T12:58:48.313Z,29.61
2022-08-05T13:02:01.084Z,28.89
2022-08-05T13:03:13.642Z,28.64
2022-08-05T13:05:14.552Z,27.44
2022-08-05T13:07:15.919Z,27.93
2022-08-05T13:09:28.606Z,28.02
2022-08-05T13:12:03.286Z,27.52
2022-08-05T13:14:06.216Z,27.81
2022-08-05T13:16:15.317Z,27.70
2022-08-05T13:18:19.875Z,28.00
2022-08-05T13:20:23.436Z,28.39
2022-08-05T13:22:28.547Z,28.39
2022-08-05T13:24:51.103Z,28.45
2022-08-05T13:26:50.644Z,28.22
2022-08-05T13:28:49.138Z,28.95
2022-08-05T13:30:57.222Z,28.41
2022-08-05T13:32:56.427Z,28.42
2022-08-05T13:34:55.266Z,29.12
2022-08-05T13:36:53.938Z,28.59
2022-08-05T13:38:52.394Z,28.50
2022-08-05T13:40:52.124Z,28.60
2022-08-05T13:42:50.763Z,28.91
2022-08-05T13:44:54.322Z,28.47
2022-08-05T13:47:02.568Z,27.92
2022-08-05T13:49:10.161Z,27.67
2022-08-05T13:51:11.404Z,27.90
2022-08-05T13:53:15.804Z,27.76
2022-08-05T13:55:41.178Z,28.02
2022-08-05T13:57:51.031Z,27.87
2022-08-05T13:59:57.578Z,28.04
2022-08-05T14:02:10.586Z,28.20
2022-08-05T14:04:36.255Z,27.92
2022-08-05T14:06:34.974Z,27.92
2022-08-05T14:08:35.526Z,28.45
2022-08-05T14:10:35.498Z,28.17
2022-08-05T14:12:35.874Z,28.41
2022-08-05T14:14:34.140Z,28.65
2022-08-05T14:16:32.423Z,28.69
2022-08-05T14:18:32.216Z,28.13
2022-08-05T14:20:30.797Z,28.26
2022-08-05T14:22:30.482Z,28.38
2022-08-05T14:24:32.806Z,27.99
2022-08-05T14:26:36.892Z,28.45
2022-08-05T14:28:52.174Z,27.91
2022-08-05T14:30:50.783Z,27.70
2022-08-05T14:32:52.343Z,27.91
2022-08-05T14:34:52.216Z,27.94
2022-08-05T14:36:50.485Z,28.03
2022-08-05T14:38:49.338Z,27.05
2022-08-05T14:40:48.256Z,27.68
2022-08-05T14:42:46.492Z,27.64
2022-08-05T14:44:47.338Z,28.04
2022-08-05T14:46:45.801Z,27.68
2022-08-05T14:48:44.760Z,27.93
2022-08-05T14:50:49.898Z,27.92
2022-08-05T14:52:57.663Z,28.56
2022-08-05T14:54:57.317Z,28.45
2022-08-05T14:57:00.515Z,28.60
2022-08-05T14:59:04.151Z,28.48
2022-08-05T15:01:05.047Z,28.36
2022-08-05T15:03:15.118Z,28.27
2022-08-05T15:05:14.753Z,28.52
2022-08-05T15:08:09.026Z,28.87
2022-08-05T15:09:52.876Z,29.02
2022-08-05T15:11:55.319Z,29.23
2022-08-05T15:13:54.335Z,29.56
2022-08-05T15:15:55.723Z,29.30
2022-08-05T15:17:58.123Z,29.36
2022-08-05T15:20:02.722Z,29.52
2022-08-05T15:22:02.108Z,29.52
2022-08-05T15:24:01.981Z,30.56
2022-08-05T15:26:03.005Z,30.71
2022-08-05T15:28:01.941Z,29.67
2022-08-05T15:30:00.175Z,30.88
2022-08-05T15:32:03.153Z,30.52
2022-08-05T15:34:18.790Z,30.71
2022-08-05T15:36:24.446Z,30.58
2022-08-05T15:38:34.306Z,31.07
2022-08-05T15:41:02.880Z,30.65
2022-08-05T15:43:00.479Z,30.09
2022-08-05T15:45:11.442Z,30.97
2022-08-05T15:47:09.795Z,30.49
2022-08-05T15:49:10.301Z,32.16
2022-08-05T15:51:09.814Z,30.78
2022-08-05T15:53:09.766Z,30.73
2022-08-05T15:55:16.129Z,31.76
2022-08-05T15:57:16.195Z,31.30
2022-08-05T15:59:19.872Z,31.21
2022-08-05T16:01:20.032Z,31.81
2022-08-05T16:03:18.518Z,31.50
2022-08-05T16:05:16.877Z,31.75
2022-08-05T16:07:18.943Z,31.94
2022-08-05T16:09:22.187Z,32.03
2022-08-05T16:11:20.799Z,31.73
2022-08-05T16:13:39.550Z,32.43
2022-08-05T16:15:37.695Z,31.90
2022-08-05T16:17:40.276Z,31.51
2022-08-05T16:20:03.640Z,31.08
2022-08-05T16:22:00.382Z,31.43
2022-08-05T16:24:03.483Z,31.68
2022-08-05T16:26:07.523Z,31.28
2022-08-05T16:28:09.448Z,31.70
2022-08-05T16:30:25.814Z,32.02
2022-08-05T16:32:29.191Z,31.97
2022-08-05T16:34:28.881Z,32.75
2022-08-05T16:36:28.334Z,32.04
2022-08-05T16:38:28.072Z,32.52
2022-08-05T16:40:29.078Z,32.49
2022-08-05T16:42:28.597Z,32.22
2022-08-05T16:44:27.532Z,32.91
2022-08-05T16:46:27.616Z,32.85
2022-08-05T16:48:33.441Z,32.92
2022-08-05T16:50:33.806Z,33.09
2022-08-05T16:52:32.715Z,33.49
2022-08-05T16:54:33.182Z,32.82
2022-08-05T16:56:33.978Z,32.70
2022-08-05T16:58:32.224Z,33.36
2022-08-05T17:00:35.128Z,33.17
2022-08-05T17:02:37.899Z,33.39
2022-08-05T17:04:36.199Z,33.40
2022-08-05T17:06:38.727Z,32.97
2022-08-05T17:08:53.165Z,33.39
2022-08-05T17:10:52.343Z,33.94
2022-08-05T17:12:52.312Z,33.50
2022-08-05T17:14:51.036Z,33.26
2022-08-05T17:16:49.926Z,33.84
2022-08-05T17:18:53.677Z,33.79
2022-08-05T17:20:52.796Z,33.88
2022-08-05T17:22:55.328Z,34.06
2022-08-05T17:24:57.449Z,34.29
2022-08-05T17:26:56.569Z,34.64
2022-08-05T17:28:54.910Z,34.69
2022-08-05T17:30:53.398Z,34.79
2022-08-05T17:32:52.622Z,34.71
2022-08-05T17:34:52.453Z,35.26
2022-08-05T17:36:51.151Z,35.12
2022-08-05T17:38:49.582Z,35.28
2022-08-05T17:40:47.968Z,35.89
2022-08-05T17:42:50.951Z,35.49
2022-08-05T17:44:51.627Z,35.74
2022-08-05T17:46:50.043Z,35.85
2022-08-05T17:48:49.131Z,36.07
2022-08-05T17:50:48.911Z,35.76
2022-08-05T17:52:53.005Z,36.09
2022-08-05T17:54:53.561Z,36.40
2022-08-05T17:56:52.169Z,36.50
2022-08-05T17:58:51.187Z,36.76
2022-08-05T18:00:51.130Z,37.20
2022-08-05T18:02:49.781Z,36.31
2022-08-05T18:04:53.226Z,36.70
2022-08-05T18:06:53.514Z,36.94
2022-08-05T18:08:58.843Z,37.06
2022-08-05T18:10:57.197Z,37.07
2022-08-05T18:12:55.678Z,36.84
2022-08-05T18:14:55.595Z,36.79
2022-08-05T18:16:53.952Z,37.09
2022-08-05T18:18:53.735Z,36.67
2022-08-05T18:20:51.998Z,36.82
2022-08-05T18:22:57.354Z,36.86
2022-08-05T18:24:56.603Z,36.92
2022-08-05T18:26:54.990Z,37.14
2022-08-05T18:28:53.626Z,37.16
2022-08-05T18:30:52.580Z,37.28
2022-08-05T18:32:53.468Z,37.57
2022-08-05T18:34:58.450Z,36.88
2022-08-05T18:36:57.334Z,37.18
2022-08-05T18:38:57.107Z,36.96
2022-08-05T18:41:56.228Z,37.11
2022-08-05T18:43:16.419Z,37.70
2022-08-05T18:45:15.469Z,37.32
2022-08-05T18:47:14.455Z,37.34
2022-08-05T18:49:30.436Z,38.08
2022-08-05T18:52:05.400Z,37.97
2022-08-05T18:54:08.864Z,38.08
2022-08-05T18:56:07.945Z,37.82
2022-08-05T18:58:16.515Z,39.61
2022-08-05T19:00:21.044Z,40.35
2022-08-05T19:02:28.515Z,39.64
2022-08-05T19:04:30.624Z,40.41
2022-08-05T19:06:37.118Z,40.69
2022-08-05T19:08:43.215Z,41.25
2022-08-05T19:10:42.910Z,41.13
2022-08-05T19:12:41.585Z,41.98
2022-08-05T19:15:00.782Z,41.52
2022-08-05T19:17:01.261Z,42.97
2022-08-05T19:19:03.444Z,43.06
2022-08-05T19:21:03.502Z,43.79
2022-08-05T19:23:07.762Z,43.56
2022-08-05T19:25:07.726Z,44.41
2022-08-05T19:27:09.086Z,45.33
2022-08-05T19:29:18.975Z,45.49
2022-08-05T19:31:19.415Z,45.72
2022-08-05T19:33:35.872Z,46.08
2022-08-05T19:35:56.060Z,46.58
2022-08-05T19:38:06.783Z,46.78
2022-08-05T19:40:10.357Z,46.04
2022-08-05T19:42:10.530Z,46.22
2022-08-05T19:44:14.221Z,45.76
2022-08-05T19:46:16.771Z,47.33
2022-08-05T19:48:28.271Z,46.22
2022-08-05T19:50:26.881Z,46.95
2022-08-05T19:52:31.551Z,48.02
2022-08-05T19:54:31.950Z,48.03
2022-08-05T19:56:34.514Z,48.31
2022-08-05T19:58:53.460Z,48.78
2022-08-05T20:00:52.791Z,49.43
2022-08-05T20:02:51.194Z,49.61
2022-08-05T20:04:50.299Z,48.85
2022-08-05T20:06:49.009Z,49.04
2022-08-05T20:08:48.888Z,49.22
2022-08-05T20:10:50.169Z,49.14
2022-08-05T20:12:49.494Z,49.31
2022-08-05T20:14:52.265Z,49.03
2022-08-05T20:16:50.877Z,49.73
2022-08-05T20:18:51.432Z,49.04
2022-08-05T20:20:55.332Z,50.00
2022-08-05T20:22:54.838Z,50.73
2022-08-05T20:24:57.096Z,50.76
2022-08-05T20:26:55.531Z,51.00
2022-08-05T20:28:57.474Z,50.85
2022-08-05T20:31:00.676Z,51.20
2022-08-05T20:33:00.520Z,51.16
2022-08-05T20:34:59.114Z,51.15
2022-08-05T20:36:57.488Z,51.25
2022-08-05T20:38:57.774Z,51.41
2022-08-05T20:40:56.511Z,52.05
2022-08-05T20:42:55.659Z,52.39
2022-08-05T20:44:58.245Z,52.84
2022-08-05T20:47:01.720Z,52.83
2022-08-05T20:49:02.450Z,52.54
2022-08-05T20:51:08.298Z,52.81
2022-08-05T20:53:06.919Z,53.32
2022-08-05T20:57:43.941Z,53.93
2022-08-05T21:00:10.549Z,53.67
2022-08-05T21:02:04.038Z,53.83
2022-08-05T21:04:02.399Z,54.13
2022-08-05T21:06:02.738Z,54.89
2022-08-05T21:08:01.200Z,54.68
2022-08-05T21:09:59.565Z,55.38
2022-08-05T21:12:09.678Z,55.48
2022-08-05T21:14:10.259Z,55.81
2022-08-05T21:16:10.705Z,56.01
2022-08-05T21:18:10.328Z,56.40
2022-08-05T21:20:11.381Z,56.35
2022-08-05T21:22:11.945Z,56.21
2022-08-05T21:24:13.475Z,56.54
2022-08-05T21:26:15.230Z,56.54
2022-08-05T21:28:13.590Z,56.25
2022-08-05T21:30:19.219Z,55.75
2022-08-05T21:32:22.244Z,55.06
2022-08-05T21:34:26.653Z,55.38
2022-08-05T21:36:30.137Z,54.01
2022-08-05T21:38:31.182Z,54.47
2022-08-05T21:40:29.709Z,54.71
2022-08-05T21:42:30.904Z,54.47
2022-08-05T21:44:42.033Z,53.54
2022-08-05T21:46:41.635Z,54.30
2022-08-05T21:48:41.399Z,54.39
2022-08-05T21:50:53.201Z,54.44
2022-08-05T21:52:52.789Z,54.69
2022-08-05T21:54:51.314Z,54.41
2022-08-05T21:57:09.550Z,54.94
2022-08-05T21:59:24.120Z,54.81
2022-08-05T22:01:25.673Z,55.17
2022-08-05T22:03:48.998Z,55.17
2022-08-05T22:05:48.869Z,55.65
2022-08-05T22:07:59.505Z,55.76
2022-08-05T22:10:00.929Z,55.90
2022-08-05T22:11:59.421Z,55.63
2022-08-05T22:14:06.649Z,55.51
2022-08-05T22:16:39.405Z,55.31
2022-08-05T22:18:36.245Z,55.99
2022-08-05T22:20:38.925Z,55.76
2022-08-05T22:22:53.031Z,55.90
2022-08-05T22:25:18.159Z,56.56
2022-08-05T22:28:09.385Z,56.64
2022-08-05T22:30:12.162Z,57.58
2022-08-05T22:32:11.862Z,57.16
2022-08-05T22:34:25.584Z,57.29
2022-08-05T22:36:27.166Z,57.24
2022-08-05T22:38:26.907Z,57.22
2022-08-05T22:40:25.289Z,57.69
2022-08-05T22:42:26.042Z,57.78
2022-08-05T22:44:24.782Z,58.10
2022-08-05T22:46:25.883Z,57.82
2022-08-05T22:48:27.254Z,57.40
2022-08-05T22:50:27.694Z,57.43
2022-08-05T22:52:32.543Z,56.80
2022-08-05T22:54:34.178Z,56.18
2022-08-05T22:56:32.766Z,55.66
2022-08-05T22:58:31.531Z,55.97
2022-08-05T23:00:31.368Z,56.07
2022-08-05T23:02:30.226Z,56.21
2022-08-05T23:04:28.892Z,56.73
2022-08-05T23:06:27.229Z,57.30
2022-08-05T23:08:27.288Z,57.35
2022-08-05T23:10:27.821Z,57.44
2022-08-05T23:12:28.555Z,57.47
2022-08-05T23:14:31.870Z,57.07
2022-08-05T23:16:48.515Z,56.67
2022-08-05T23:18:50.572Z,57.04
2022-08-05T23:20:49.793Z,56.64
2022-08-05T23:22:48.609Z,57.27
2022-08-05T23:24:51.072Z,56.69
2022-08-05T23:26:51.076Z,57.07
2022-08-05T23:28:49.553Z,57.17
2022-08-05T23:30:53.470Z,57.46
2022-08-05T23:32:52.966Z,57.59
2022-08-05T23:34:51.538Z,58.31
2022-08-05T23:36:49.906Z,58.28
2022-08-05T23:38:51.261Z,57.95
2022-08-05T23:40:50.799Z,58.27
2022-08-05T23:42:53.693Z,58.50
2022-08-05T23:44:54.254Z,59.25
2022-08-05T23:46:53.108Z,58.88
2022-08-05T23:49:00.440Z,58.97
2022-08-05T23:51:00.298Z,58.94
2022-08-05T23:53:01.165Z,59.27
2022-08-05T23:55:08.862Z,59.28
2022-08-05T23:57:08.767Z,59.59
2022-08-05T23:59:08.425Z,59.94
